sensor_id;sensor_type;location;lat;lon;timestamp;P1;durP1;ratioP1;P2;durP2;ratioP2
62584;SDS011;48643;51.670;5.808;2024-02-28T00:01:01;16.52;;;9.00;;
62584;SDS011;48643;51.670;5.808;2024-02-28T00:03:29;17.95;;;9.45;;
62584;SDS011;48643;51.670;5.808;2024-02-28T00:05:58;16.20;;;8.80;;
62584;SDS011;48643;51.670;5.808;2024-02-28T00:08:26;16.83;;;9.50;;
62584;SDS011;48643;51.670;5.808;2024-02-28T00:10:53;15.57;;;9.20;;
62584;SDS011;48643;51.670;5.808;2024-02-28T00:13:21;16.00;;;9.05;;
62584;SDS011;48643;51.670;5.808;2024-02-28T00:15:49;13.35;;;8.15;;
62584;SDS011;48643;51.670;5.808;2024-02-28T00:18:16;15.07;;;8.52;;
62584;SDS011;48643;51.670;5.808;2024-02-28T00:20:44;16.10;;;9.43;;
62584;SDS011;48643;51.670;5.808;2024-02-28T00:23:11;16.15;;;8.88;;
62584;SDS011;48643;51.670;5.808;2024-02-28T00:25:38;15.23;;;8.60;;
62584;SDS011;48643;51.670;5.808;2024-02-28T00:28:05;15.10;;;8.48;;
62584;SDS011;48643;51.670;5.808;2024-02-28T00:30:32;16.20;;;9.05;;
62584;SDS011;48643;51.670;5.808;2024-02-28T00:32:59;14.82;;;8.63;;
62584;SDS011;48643;51.670;5.808;2024-02-28T00:35:26;13.95;;;8.88;;
62584;SDS011;48643;51.670;5.808;2024-02-28T00:37:54;14.57;;;8.65;;
62584;SDS011;48643;51.670;5.808;2024-02-28T00:40:21;17.00;;;8.98;;
62584;SDS011;48643;51.670;5.808;2024-02-28T00:42:47;16.00;;;8.63;;
62584;SDS011;48643;51.670;5.808;2024-02-28T00:45:15;15.73;;;8.88;;
62584;SDS011;48643;51.670;5.808;2024-02-28T00:47:42;14.20;;;8.80;;
62584;SDS011;48643;51.670;5.808;2024-02-28T00:50:09;13.52;;;8.52;;
62584;SDS011;48643;51.670;5.808;2024-02-28T00:52:37;15.00;;;8.90;;
62584;SDS011;48643;51.670;5.808;2024-02-28T00:55:04;15.93;;;9.07;;
62584;SDS011;48643;51.670;5.808;2024-02-28T00:57:31;14.50;;;8.73;;
62584;SDS011;48643;51.670;5.808;2024-02-28T00:59:58;16.85;;;9.05;;
62584;SDS011;48643;51.670;5.808;2024-02-28T01:02:25;16.08;;;8.98;;
62584;SDS011;48643;51.670;5.808;2024-02-28T01:04:52;13.98;;;8.50;;
62584;SDS011;48643;51.670;5.808;2024-02-28T01:07:19;16.15;;;8.25;;
62584;SDS011;48643;51.670;5.808;2024-02-28T01:09:46;15.48;;;9.07;;
62584;SDS011;48643;51.670;5.808;2024-02-28T01:12:12;13.80;;;8.60;;
62584;SDS011;48643;51.670;5.808;2024-02-28T01:14:39;14.15;;;8.50;;
62584;SDS011;48643;51.670;5.808;2024-02-28T01:17:06;14.82;;;8.82;;
62584;SDS011;48643;51.670;5.808;2024-02-28T01:19:33;15.10;;;9.00;;
62584;SDS011;48643;51.670;5.808;2024-02-28T01:22:00;16.55;;;9.27;;
62584;SDS011;48643;51.670;5.808;2024-02-28T01:24:27;15.95;;;8.88;;
62584;SDS011;48643;51.670;5.808;2024-02-28T01:26:54;17.48;;;9.50;;
62584;SDS011;48643;51.670;5.808;2024-02-28T01:29:20;17.13;;;9.50;;
62584;SDS011;48643;51.670;5.808;2024-02-28T01:31:47;15.95;;;9.10;;
62584;SDS011;48643;51.670;5.808;2024-02-28T01:34:14;16.95;;;9.43;;
62584;SDS011;48643;51.670;5.808;2024-02-28T01:36:41;15.35;;;9.20;;
62584;SDS011;48643;51.670;5.808;2024-02-28T01:39:08;14.88;;;9.40;;
62584;SDS011;48643;51.670;5.808;2024-02-28T01:41:35;14.57;;;8.95;;
62584;SDS011;48643;51.670;5.808;2024-02-28T01:44:02;14.95;;;8.75;;
62584;SDS011;48643;51.670;5.808;2024-02-28T01:46:29;13.80;;;8.45;;
62584;SDS011;48643;51.670;5.808;2024-02-28T01:48:57;15.77;;;9.27;;
62584;SDS011;48643;51.670;5.808;2024-02-28T01:51:25;14.68;;;8.88;;
62584;SDS011;48643;51.670;5.808;2024-02-28T01:53:55;14.65;;;9.38;;
62584;SDS011;48643;51.670;5.808;2024-02-28T01:56:23;15.13;;;8.90;;
62584;SDS011;48643;51.670;5.808;2024-02-28T01:58:51;14.73;;;8.90;;
62584;SDS011;48643;51.670;5.808;2024-02-28T02:01:19;14.13;;;8.25;;
62584;SDS011;48643;51.670;5.808;2024-02-28T02:03:50;14.25;;;8.90;;
62584;SDS011;48643;51.670;5.808;2024-02-28T02:06:17;13.15;;;8.48;;
62584;SDS011;48643;51.670;5.808;2024-02-28T02:08:44;14.50;;;8.55;;
62584;SDS011;48643;51.670;5.808;2024-02-28T02:11:12;15.77;;;9.05;;
62584;SDS011;48643;51.670;5.808;2024-02-28T02:13:49;15.57;;;8.75;;
62584;SDS011;48643;51.670;5.808;2024-02-28T02:16:19;15.63;;;9.10;;
62584;SDS011;48643;51.670;5.808;2024-02-28T02:18:52;14.70;;;9.02;;
62584;SDS011;48643;51.670;5.808;2024-02-28T02:21:20;16.02;;;9.45;;
62584;SDS011;48643;51.670;5.808;2024-02-28T02:23:50;17.05;;;9.25;;
62584;SDS011;48643;51.670;5.808;2024-02-28T02:26:17;22.60;;;8.90;;
62584;SDS011;48643;51.670;5.808;2024-02-28T02:28:44;18.42;;;9.48;;
62584;SDS011;48643;51.670;5.808;2024-02-28T02:31:12;16.80;;;9.25;;
62584;SDS011;48643;51.670;5.808;2024-02-28T02:33:39;16.33;;;9.20;;
62584;SDS011;48643;51.670;5.808;2024-02-28T02:36:06;15.43;;;9.45;;
62584;SDS011;48643;51.670;5.808;2024-02-28T02:38:33;16.58;;;9.15;;
62584;SDS011;48643;51.670;5.808;2024-02-28T02:41:00;15.65;;;9.32;;
62584;SDS011;48643;51.670;5.808;2024-02-28T02:43:27;15.00;;;8.68;;
62584;SDS011;48643;51.670;5.808;2024-02-28T02:45:54;16.05;;;9.50;;
62584;SDS011;48643;51.670;5.808;2024-02-28T02:48:21;16.17;;;9.32;;
62584;SDS011;48643;51.670;5.808;2024-02-28T02:50:47;16.17;;;9.45;;
62584;SDS011;48643;51.670;5.808;2024-02-28T02:53:14;15.80;;;9.40;;
62584;SDS011;48643;51.670;5.808;2024-02-28T02:55:41;17.90;;;9.40;;
62584;SDS011;48643;51.670;5.808;2024-02-28T02:58:08;18.42;;;9.23;;
62584;SDS011;48643;51.670;5.808;2024-02-28T03:00:35;16.98;;;9.63;;
62584;SDS011;48643;51.670;5.808;2024-02-28T03:03:02;15.32;;;9.10;;
62584;SDS011;48643;51.670;5.808;2024-02-28T03:05:29;17.88;;;9.48;;
62584;SDS011;48643;51.670;5.808;2024-02-28T03:07:55;15.25;;;8.77;;
62584;SDS011;48643;51.670;5.808;2024-02-28T03:10:22;15.80;;;9.60;;
62584;SDS011;48643;51.670;5.808;2024-02-28T03:12:49;15.52;;;9.35;;
62584;SDS011;48643;51.670;5.808;2024-02-28T03:15:16;15.10;;;8.95;;
62584;SDS011;48643;51.670;5.808;2024-02-28T03:17:43;14.77;;;8.82;;
62584;SDS011;48643;51.670;5.808;2024-02-28T03:20:10;15.35;;;9.10;;
62584;SDS011;48643;51.670;5.808;2024-02-28T03:22:39;14.73;;;8.80;;
62584;SDS011;48643;51.670;5.808;2024-02-28T03:25:07;12.90;;;8.43;;
62584;SDS011;48643;51.670;5.808;2024-02-28T03:27:34;14.65;;;9.18;;
62584;SDS011;48643;51.670;5.808;2024-02-28T03:30:01;13.93;;;8.82;;
62584;SDS011;48643;51.670;5.808;2024-02-28T03:32:29;15.00;;;9.00;;
62584;SDS011;48643;51.670;5.808;2024-02-28T03:34:56;13.82;;;8.65;;
62584;SDS011;48643;51.670;5.808;2024-02-28T03:37:23;15.23;;;9.07;;
62584;SDS011;48643;51.670;5.808;2024-02-28T03:39:50;14.85;;;8.77;;
62584;SDS011;48643;51.670;5.808;2024-02-28T03:42:17;14.25;;;9.23;;
62584;SDS011;48643;51.670;5.808;2024-02-28T03:44:43;13.57;;;8.50;;
62584;SDS011;48643;51.670;5.808;2024-02-28T03:47:10;16.15;;;9.10;;
62584;SDS011;48643;51.670;5.808;2024-02-28T03:49:37;14.02;;;8.75;;
62584;SDS011;48643;51.670;5.808;2024-02-28T03:52:04;13.82;;;8.63;;
62584;SDS011;48643;51.670;5.808;2024-02-28T03:54:32;13.07;;;8.52;;
62584;SDS011;48643;51.670;5.808;2024-02-28T03:56:59;14.82;;;8.90;;
62584;SDS011;48643;51.670;5.808;2024-02-28T03:59:26;13.75;;;8.68;;
62584;SDS011;48643;51.670;5.808;2024-02-28T04:01:53;14.70;;;8.60;;
62584;SDS011;48643;51.670;5.808;2024-02-28T04:04:20;14.88;;;9.18;;
62584;SDS011;48643;51.670;5.808;2024-02-28T04:06:46;14.35;;;8.38;;
62584;SDS011;48643;51.670;5.808;2024-02-28T04:09:13;14.20;;;8.55;;
62584;SDS011;48643;51.670;5.808;2024-02-28T04:11:40;13.82;;;8.82;;
62584;SDS011;48643;51.670;5.808;2024-02-28T04:14:09;15.90;;;8.93;;
62584;SDS011;48643;51.670;5.808;2024-02-28T04:16:40;12.85;;;8.18;;
62584;SDS011;48643;51.670;5.808;2024-02-28T04:19:10;14.05;;;8.48;;
62584;SDS011;48643;51.670;5.808;2024-02-28T04:21:37;14.25;;;8.75;;
62584;SDS011;48643;51.670;5.808;2024-02-28T04:24:05;13.50;;;8.73;;
62584;SDS011;48643;51.670;5.808;2024-02-28T04:26:32;15.25;;;8.98;;
62584;SDS011;48643;51.670;5.808;2024-02-28T04:29:00;14.75;;;8.98;;
62584;SDS011;48643;51.670;5.808;2024-02-28T04:31:29;15.23;;;9.27;;
62584;SDS011;48643;51.670;5.808;2024-02-28T04:33:56;15.07;;;9.20;;
62584;SDS011;48643;51.670;5.808;2024-02-28T04:36:23;15.13;;;9.27;;
62584;SDS011;48643;51.670;5.808;2024-02-28T04:38:50;16.83;;;9.85;;
62584;SDS011;48643;51.670;5.808;2024-02-28T04:41:17;15.02;;;9.43;;
62584;SDS011;48643;51.670;5.808;2024-02-28T04:43:43;15.75;;;9.32;;
62584;SDS011;48643;51.670;5.808;2024-02-28T04:46:10;16.15;;;9.38;;
62584;SDS011;48643;51.670;5.808;2024-02-28T04:48:37;17.20;;;9.52;;
62584;SDS011;48643;51.670;5.808;2024-02-28T04:51:04;15.48;;;9.20;;
62584;SDS011;48643;51.670;5.808;2024-02-28T04:53:31;16.73;;;9.48;;
62584;SDS011;48643;51.670;5.808;2024-02-28T04:55:58;18.45;;;10.02;;
62584;SDS011;48643;51.670;5.808;2024-02-28T04:58:25;15.40;;;9.60;;
62584;SDS011;48643;51.670;5.808;2024-02-28T05:00:52;15.70;;;10.00;;
62584;SDS011;48643;51.670;5.808;2024-02-28T05:03:18;16.85;;;10.20;;
62584;SDS011;48643;51.670;5.808;2024-02-28T05:05:45;15.45;;;9.68;;
62584;SDS011;48643;51.670;5.808;2024-02-28T05:08:12;15.65;;;9.68;;
62584;SDS011;48643;51.670;5.808;2024-02-28T05:10:39;15.88;;;9.60;;
62584;SDS011;48643;51.670;5.808;2024-02-28T05:13:06;16.05;;;10.10;;
62584;SDS011;48643;51.670;5.808;2024-02-28T05:15:33;15.50;;;9.50;;
62584;SDS011;48643;51.670;5.808;2024-02-28T05:18:00;16.65;;;10.13;;
62584;SDS011;48643;51.670;5.808;2024-02-28T05:20:27;17.15;;;9.88;;
62584;SDS011;48643;51.670;5.808;2024-02-28T05:22:54;16.48;;;9.48;;
62584;SDS011;48643;51.670;5.808;2024-02-28T05:25:21;17.83;;;9.80;;
62584;SDS011;48643;51.670;5.808;2024-02-28T05:27:48;18.70;;;10.45;;
62584;SDS011;48643;51.670;5.808;2024-02-28T05:30:15;15.68;;;9.68;;
62584;SDS011;48643;51.670;5.808;2024-02-28T05:32:42;17.15;;;10.02;;
62584;SDS011;48643;51.670;5.808;2024-02-28T05:35:09;17.88;;;9.90;;
62584;SDS011;48643;51.670;5.808;2024-02-28T05:37:37;16.85;;;10.23;;
62584;SDS011;48643;51.670;5.808;2024-02-28T05:40:06;14.50;;;9.65;;
62584;SDS011;48643;51.670;5.808;2024-02-28T05:42:33;20.60;;;10.15;;
62584;SDS011;48643;51.670;5.808;2024-02-28T05:45:00;17.25;;;10.50;;
62584;SDS011;48643;51.670;5.808;2024-02-28T05:47:27;18.75;;;10.25;;
62584;SDS011;48643;51.670;5.808;2024-02-28T05:49:56;18.80;;;10.20;;
62584;SDS011;48643;51.670;5.808;2024-02-28T05:52:24;16.90;;;10.43;;
62584;SDS011;48643;51.670;5.808;2024-02-28T05:57:20;16.30;;;9.63;;
62584;SDS011;48643;51.670;5.808;2024-02-28T05:59:47;16.65;;;9.85;;
62584;SDS011;48643;51.670;5.808;2024-02-28T06:02:14;17.83;;;10.80;;
62584;SDS011;48643;51.670;5.808;2024-02-28T06:04:41;19.83;;;10.60;;
62584;SDS011;48643;51.670;5.808;2024-02-28T06:07:08;18.13;;;10.32;;
62584;SDS011;48643;51.670;5.808;2024-02-28T06:09:34;17.58;;;10.57;;
62584;SDS011;48643;51.670;5.808;2024-02-28T06:12:01;16.50;;;10.13;;
62584;SDS011;48643;51.670;5.808;2024-02-28T06:14:28;16.15;;;10.20;;
62584;SDS011;48643;51.670;5.808;2024-02-28T06:16:55;15.07;;;9.77;;
62584;SDS011;48643;51.670;5.808;2024-02-28T06:19:22;16.50;;;9.60;;
62584;SDS011;48643;51.670;5.808;2024-02-28T06:21:49;16.45;;;10.43;;
62584;SDS011;48643;51.670;5.808;2024-02-28T06:24:16;16.25;;;10.50;;
62584;SDS011;48643;51.670;5.808;2024-02-28T06:26:43;17.70;;;10.52;;
62584;SDS011;48643;51.670;5.808;2024-02-28T06:29:14;16.25;;;10.15;;
62584;SDS011;48643;51.670;5.808;2024-02-28T06:31:41;17.23;;;10.07;;
62584;SDS011;48643;51.670;5.808;2024-02-28T06:34:08;18.75;;;10.93;;
62584;SDS011;48643;51.670;5.808;2024-02-28T06:36:38;16.55;;;10.35;;
62584;SDS011;48643;51.670;5.808;2024-02-28T06:39:05;18.33;;;10.75;;
62584;SDS011;48643;51.670;5.808;2024-02-28T06:41:32;19.13;;;11.63;;
62584;SDS011;48643;51.670;5.808;2024-02-28T06:43:59;17.67;;;11.35;;
62584;SDS011;48643;51.670;5.808;2024-02-28T06:46:26;19.75;;;11.10;;
62584;SDS011;48643;51.670;5.808;2024-02-28T06:48:53;19.00;;;11.70;;
62584;SDS011;48643;51.670;5.808;2024-02-28T06:51:20;20.83;;;11.60;;
62584;SDS011;48643;51.670;5.808;2024-02-28T06:53:47;19.92;;;11.35;;
62584;SDS011;48643;51.670;5.808;2024-02-28T06:56:14;19.95;;;11.55;;
62584;SDS011;48643;51.670;5.808;2024-02-28T06:58:41;19.70;;;11.73;;
62584;SDS011;48643;51.670;5.808;2024-02-28T07:01:08;22.00;;;11.30;;
62584;SDS011;48643;51.670;5.808;2024-02-28T07:03:34;19.17;;;11.00;;
62584;SDS011;48643;51.670;5.808;2024-02-28T07:06:01;20.10;;;11.70;;
62584;SDS011;48643;51.670;5.808;2024-02-28T07:08:28;26.35;;;12.32;;
62584;SDS011;48643;51.670;5.808;2024-02-28T07:10:55;20.02;;;11.55;;
62584;SDS011;48643;51.670;5.808;2024-02-28T07:13:22;19.02;;;11.13;;
62584;SDS011;48643;51.670;5.808;2024-02-28T07:15:49;21.80;;;11.82;;
62584;SDS011;48643;51.670;5.808;2024-02-28T07:18:16;36.60;;;16.52;;
62584;SDS011;48643;51.670;5.808;2024-02-28T07:20:43;48.03;;;16.95;;
62584;SDS011;48643;51.670;5.808;2024-02-28T07:23:11;36.85;;;15.88;;
62584;SDS011;48643;51.670;5.808;2024-02-28T07:25:38;29.95;;;15.18;;
62584;SDS011;48643;51.670;5.808;2024-02-28T07:28:05;30.58;;;14.45;;
62584;SDS011;48643;51.670;5.808;2024-02-28T07:30:32;40.05;;;15.50;;
62584;SDS011;48643;51.670;5.808;2024-02-28T07:32:59;33.20;;;15.82;;
62584;SDS011;48643;51.670;5.808;2024-02-28T07:35:26;30.92;;;15.38;;
62584;SDS011;48643;51.670;5.808;2024-02-28T07:37:53;30.30;;;14.75;;
62584;SDS011;48643;51.670;5.808;2024-02-28T07:40:19;31.25;;;15.63;;
62584;SDS011;48643;51.670;5.808;2024-02-28T07:42:46;30.25;;;14.88;;
62584;SDS011;48643;51.670;5.808;2024-02-28T07:45:13;30.80;;;15.60;;
62584;SDS011;48643;51.670;5.808;2024-02-28T07:47:40;29.63;;;15.35;;
62584;SDS011;48643;51.670;5.808;2024-02-28T07:50:07;28.02;;;15.48;;
62584;SDS011;48643;51.670;5.808;2024-02-28T07:52:34;30.67;;;15.43;;
62584;SDS011;48643;51.670;5.808;2024-02-28T07:55:01;29.92;;;15.02;;
62584;SDS011;48643;51.670;5.808;2024-02-28T07:57:29;29.55;;;14.75;;
62584;SDS011;48643;51.670;5.808;2024-02-28T07:59:57;29.08;;;14.77;;
62584;SDS011;48643;51.670;5.808;2024-02-28T08:02:24;29.73;;;14.35;;
62584;SDS011;48643;51.670;5.808;2024-02-28T08:04:51;26.08;;;13.93;;
62584;SDS011;48643;51.670;5.808;2024-02-28T08:07:18;30.08;;;14.80;;
62584;SDS011;48643;51.670;5.808;2024-02-28T08:09:45;29.02;;;14.27;;
62584;SDS011;48643;51.670;5.808;2024-02-28T08:12:12;29.48;;;14.63;;
62584;SDS011;48643;51.670;5.808;2024-02-28T08:14:41;27.00;;;14.38;;
62584;SDS011;48643;51.670;5.808;2024-02-28T08:17:08;30.00;;;14.68;;
62584;SDS011;48643;51.670;5.808;2024-02-28T08:19:35;27.52;;;14.55;;
62584;SDS011;48643;51.670;5.808;2024-02-28T08:22:02;24.90;;;14.05;;
62584;SDS011;48643;51.670;5.808;2024-02-28T08:24:29;27.48;;;14.27;;
62584;SDS011;48643;51.670;5.808;2024-02-28T08:26:56;27.25;;;14.18;;
62584;SDS011;48643;51.670;5.808;2024-02-28T08:29:23;28.90;;;14.70;;
62584;SDS011;48643;51.670;5.808;2024-02-28T08:31:50;25.80;;;13.70;;
62584;SDS011;48643;51.670;5.808;2024-02-28T08:34:17;20.95;;;11.93;;
62584;SDS011;48643;51.670;5.808;2024-02-28T08:36:44;26.60;;;13.00;;
62584;SDS011;48643;51.670;5.808;2024-02-28T08:39:12;25.10;;;13.10;;
62584;SDS011;48643;51.670;5.808;2024-02-28T08:41:39;23.70;;;12.50;;
62584;SDS011;48643;51.670;5.808;2024-02-28T08:44:06;25.17;;;12.65;;
62584;SDS011;48643;51.670;5.808;2024-02-28T08:46:33;23.98;;;11.95;;
62584;SDS011;48643;51.670;5.808;2024-02-28T08:49:00;24.77;;;13.02;;
62584;SDS011;48643;51.670;5.808;2024-02-28T08:51:27;24.52;;;12.55;;
62584;SDS011;48643;51.670;5.808;2024-02-28T08:53:54;24.63;;;12.30;;
62584;SDS011;48643;51.670;5.808;2024-02-28T08:56:21;22.58;;;12.10;;
62584;SDS011;48643;51.670;5.808;2024-02-28T08:58:48;22.58;;;12.57;;
62584;SDS011;48643;51.670;5.808;2024-02-28T09:01:15;26.80;;;12.90;;
62584;SDS011;48643;51.670;5.808;2024-02-28T09:03:43;22.48;;;12.32;;
62584;SDS011;48643;51.670;5.808;2024-02-28T09:06:10;24.48;;;12.38;;
62584;SDS011;48643;51.670;5.808;2024-02-28T09:08:37;25.02;;;12.45;;
62584;SDS011;48643;51.670;5.808;2024-02-28T09:11:04;22.65;;;12.40;;
62584;SDS011;48643;51.670;5.808;2024-02-28T09:13:32;23.13;;;12.45;;
62584;SDS011;48643;51.670;5.808;2024-02-28T09:15:59;24.35;;;12.60;;
62584;SDS011;48643;51.670;5.808;2024-02-28T09:18:26;22.73;;;12.60;;
62584;SDS011;48643;51.670;5.808;2024-02-28T09:20:53;21.15;;;12.32;;
62584;SDS011;48643;51.670;5.808;2024-02-28T09:23:20;20.13;;;11.90;;
62584;SDS011;48643;51.670;5.808;2024-02-28T09:25:47;21.13;;;12.02;;
62584;SDS011;48643;51.670;5.808;2024-02-28T09:28:14;25.17;;;12.73;;
62584;SDS011;48643;51.670;5.808;2024-02-28T09:30:42;22.98;;;12.25;;
62584;SDS011;48643;51.670;5.808;2024-02-28T09:33:18;20.10;;;11.73;;
62584;SDS011;48643;51.670;5.808;2024-02-28T09:35:46;21.45;;;12.43;;
62584;SDS011;48643;51.670;5.808;2024-02-28T09:38:13;23.70;;;12.70;;
62584;SDS011;48643;51.670;5.808;2024-02-28T09:40:40;22.80;;;12.48;;
62584;SDS011;48643;51.670;5.808;2024-02-28T09:43:07;21.23;;;12.10;;
62584;SDS011;48643;51.670;5.808;2024-02-28T09:45:42;23.83;;;12.68;;
62584;SDS011;48643;51.670;5.808;2024-02-28T09:48:13;21.83;;;12.77;;
62584;SDS011;48643;51.670;5.808;2024-02-28T09:50:42;29.58;;;15.45;;
62584;SDS011;48643;51.670;5.808;2024-02-28T09:53:09;25.45;;;15.48;;
62584;SDS011;48643;51.670;5.808;2024-02-28T09:55:37;30.38;;;15.57;;
62584;SDS011;48643;51.670;5.808;2024-02-28T09:58:04;28.73;;;15.50;;
62584;SDS011;48643;51.670;5.808;2024-02-28T10:00:31;33.42;;;15.73;;
62584;SDS011;48643;51.670;5.808;2024-02-28T10:03:00;30.30;;;15.02;;
62584;SDS011;48643;51.670;5.808;2024-02-28T10:05:27;37.42;;;15.52;;
62584;SDS011;48643;51.670;5.808;2024-02-28T10:07:55;33.90;;;15.18;;
62584;SDS011;48643;51.670;5.808;2024-02-28T10:10:22;30.30;;;15.43;;
62584;SDS011;48643;51.670;5.808;2024-02-28T10:12:49;32.13;;;14.70;;
62584;SDS011;48643;51.670;5.808;2024-02-28T10:15:16;27.98;;;12.77;;
62584;SDS011;48643;51.670;5.808;2024-02-28T10:17:43;29.52;;;11.25;;
62584;SDS011;48643;51.670;5.808;2024-02-28T10:20:10;20.85;;;10.40;;
62584;SDS011;48643;51.670;5.808;2024-02-28T10:22:37;21.65;;;10.95;;
62584;SDS011;48643;51.670;5.808;2024-02-28T10:25:05;27.35;;;10.52;;
62584;SDS011;48643;51.670;5.808;2024-02-28T10:27:33;22.13;;;9.73;;
62584;SDS011;48643;51.670;5.808;2024-02-28T10:30:01;21.02;;;10.02;;
62584;SDS011;48643;51.670;5.808;2024-02-28T10:32:31;21.50;;;9.98;;
62584;SDS011;48643;51.670;5.808;2024-02-28T10:35:00;20.05;;;10.68;;
62584;SDS011;48643;51.670;5.808;2024-02-28T10:37:30;22.27;;;10.07;;
62584;SDS011;48643;51.670;5.808;2024-02-28T10:39:59;18.25;;;10.45;;
62584;SDS011;48643;51.670;5.808;2024-02-28T10:42:29;19.40;;;10.70;;
62584;SDS011;48643;51.670;5.808;2024-02-28T10:44:57;17.58;;;9.77;;
62584;SDS011;48643;51.670;5.808;2024-02-28T10:47:45;21.17;;;10.10;;
62584;SDS011;48643;51.670;5.808;2024-02-28T10:50:14;19.02;;;10.48;;
62584;SDS011;48643;51.670;5.808;2024-02-28T10:52:44;23.75;;;11.57;;
62584;SDS011;48643;51.670;5.808;2024-02-28T10:55:25;19.45;;;10.43;;
62584;SDS011;48643;51.670;5.808;2024-02-28T10:58:01;17.77;;;10.38;;
62584;SDS011;48643;51.670;5.808;2024-02-28T11:00:30;18.85;;;11.07;;
62584;SDS011;48643;51.670;5.808;2024-02-28T11:02:58;18.73;;;10.52;;
62584;SDS011;48643;51.670;5.808;2024-02-28T11:05:41;19.25;;;10.23;;
62584;SDS011;48643;51.670;5.808;2024-02-28T11:08:09;17.48;;;9.63;;
62584;SDS011;48643;51.670;5.808;2024-02-28T11:10:40;19.05;;;10.65;;
62584;SDS011;48643;51.670;5.808;2024-02-28T11:13:25;34.60;;;11.68;;
62584;SDS011;48643;51.670;5.808;2024-02-28T11:15:53;19.08;;;11.25;;
62584;SDS011;48643;51.670;5.808;2024-02-28T11:18:21;34.13;;;12.30;;
62584;SDS011;48643;51.670;5.808;2024-02-28T11:20:49;40.15;;;12.20;;
62584;SDS011;48643;51.670;5.808;2024-02-28T11:23:17;27.92;;;12.30;;
62584;SDS011;48643;51.670;5.808;2024-02-28T11:25:44;25.15;;;12.77;;
62584;SDS011;48643;51.670;5.808;2024-02-28T11:28:11;29.20;;;12.45;;
62584;SDS011;48643;51.670;5.808;2024-02-28T11:30:38;26.27;;;12.25;;
62584;SDS011;48643;51.670;5.808;2024-02-28T11:33:05;26.25;;;12.05;;
62584;SDS011;48643;51.670;5.808;2024-02-28T11:38:01;30.75;;;11.98;;
62584;SDS011;48643;51.670;5.808;2024-02-28T11:40:29;23.17;;;11.77;;
62584;SDS011;48643;51.670;5.808;2024-02-28T11:42:56;26.23;;;12.50;;
62584;SDS011;48643;51.670;5.808;2024-02-28T11:45:25;25.85;;;12.38;;
62584;SDS011;48643;51.670;5.808;2024-02-28T11:47:52;19.17;;;11.55;;
62584;SDS011;48643;51.670;5.808;2024-02-28T11:50:19;20.45;;;11.68;;
62584;SDS011;48643;51.670;5.808;2024-02-28T11:52:46;23.85;;;11.48;;
62584;SDS011;48643;51.670;5.808;2024-02-28T11:55:13;24.88;;;12.25;;
62584;SDS011;48643;51.670;5.808;2024-02-28T11:57:40;20.73;;;11.60;;
62584;SDS011;48643;51.670;5.808;2024-02-28T12:00:07;20.90;;;11.48;;
62584;SDS011;48643;51.670;5.808;2024-02-28T12:02:35;19.40;;;11.02;;
62584;SDS011;48643;51.670;5.808;2024-02-28T12:05:03;19.80;;;11.02;;
62584;SDS011;48643;51.670;5.808;2024-02-28T12:07:31;18.00;;;11.07;;
62584;SDS011;48643;51.670;5.808;2024-02-28T12:09:58;22.67;;;11.60;;
62584;SDS011;48643;51.670;5.808;2024-02-28T12:12:29;19.83;;;11.00;;
62584;SDS011;48643;51.670;5.808;2024-02-28T12:14:59;18.52;;;11.45;;
62584;SDS011;48643;51.670;5.808;2024-02-28T12:17:26;21.95;;;11.90;;
62584;SDS011;48643;51.670;5.808;2024-02-28T12:19:54;21.13;;;11.40;;
62584;SDS011;48643;51.670;5.808;2024-02-28T12:22:22;19.55;;;11.40;;
62584;SDS011;48643;51.670;5.808;2024-02-28T12:24:49;19.42;;;11.23;;
62584;SDS011;48643;51.670;5.808;2024-02-28T12:27:15;21.27;;;11.60;;
62584;SDS011;48643;51.670;5.808;2024-02-28T12:29:43;18.77;;;10.48;;
62584;SDS011;48643;51.670;5.808;2024-02-28T12:32:10;19.63;;;10.57;;
62584;SDS011;48643;51.670;5.808;2024-02-28T12:34:38;18.63;;;10.13;;
62584;SDS011;48643;51.670;5.808;2024-02-28T12:37:05;19.35;;;10.50;;
62584;SDS011;48643;51.670;5.808;2024-02-28T12:39:32;18.13;;;10.77;;
62584;SDS011;48643;51.670;5.808;2024-02-28T12:44:28;19.08;;;11.15;;
62584;SDS011;48643;51.670;5.808;2024-02-28T12:46:55;22.33;;;10.50;;
62584;SDS011;48643;51.670;5.808;2024-02-28T12:49:22;19.90;;;10.80;;
62584;SDS011;48643;51.670;5.808;2024-02-28T12:51:49;19.27;;;10.77;;
62584;SDS011;48643;51.670;5.808;2024-02-28T12:54:17;18.25;;;10.95;;
62584;SDS011;48643;51.670;5.808;2024-02-28T12:56:47;21.48;;;10.93;;
62584;SDS011;48643;51.670;5.808;2024-02-28T12:59:14;19.65;;;11.45;;
62584;SDS011;48643;51.670;5.808;2024-02-28T13:01:42;20.33;;;11.63;;
62584;SDS011;48643;51.670;5.808;2024-02-28T13:04:09;25.50;;;11.88;;
62584;SDS011;48643;51.670;5.808;2024-02-28T13:06:37;22.08;;;11.55;;
62584;SDS011;48643;51.670;5.808;2024-02-28T13:09:05;23.20;;;11.75;;
62584;SDS011;48643;51.670;5.808;2024-02-28T13:11:38;21.05;;;11.90;;
62584;SDS011;48643;51.670;5.808;2024-02-28T13:14:05;21.15;;;11.10;;
62584;SDS011;48643;51.670;5.808;2024-02-28T13:16:35;24.30;;;11.93;;
62584;SDS011;48643;51.670;5.808;2024-02-28T13:19:02;26.20;;;12.32;;
62584;SDS011;48643;51.670;5.808;2024-02-28T13:21:29;21.45;;;11.25;;
62584;SDS011;48643;51.670;5.808;2024-02-28T13:23:56;23.17;;;12.27;;
62584;SDS011;48643;51.670;5.808;2024-02-28T13:26:23;25.60;;;12.88;;
62584;SDS011;48643;51.670;5.808;2024-02-28T13:28:49;23.33;;;12.68;;
62584;SDS011;48643;51.670;5.808;2024-02-28T13:31:19;21.75;;;11.90;;
62584;SDS011;48643;51.670;5.808;2024-02-28T13:33:46;21.42;;;12.02;;
62584;SDS011;48643;51.670;5.808;2024-02-28T13:36:15;18.17;;;12.00;;
62584;SDS011;48643;51.670;5.808;2024-02-28T13:38:42;24.73;;;12.60;;
62584;SDS011;48643;51.670;5.808;2024-02-28T13:41:09;27.02;;;13.35;;
62584;SDS011;48643;51.670;5.808;2024-02-28T13:43:36;24.70;;;13.38;;
62584;SDS011;48643;51.670;5.808;2024-02-28T13:46:03;22.95;;;12.55;;
62584;SDS011;48643;51.670;5.808;2024-02-28T13:48:30;21.73;;;12.15;;
62584;SDS011;48643;51.670;5.808;2024-02-28T13:50:59;23.98;;;12.82;;
62584;SDS011;48643;51.670;5.808;2024-02-28T13:53:28;22.00;;;12.32;;
62584;SDS011;48643;51.670;5.808;2024-02-28T13:55:55;22.30;;;12.18;;
62584;SDS011;48643;51.670;5.808;2024-02-28T13:58:21;22.10;;;12.68;;
62584;SDS011;48643;51.670;5.808;2024-02-28T14:00:48;21.50;;;12.50;;
62584;SDS011;48643;51.670;5.808;2024-02-28T14:03:15;24.00;;;12.80;;
62584;SDS011;48643;51.670;5.808;2024-02-28T14:05:42;24.92;;;12.57;;
62584;SDS011;48643;51.670;5.808;2024-02-28T14:08:09;23.75;;;12.50;;
62584;SDS011;48643;51.670;5.808;2024-02-28T14:10:39;21.83;;;12.35;;
62584;SDS011;48643;51.670;5.808;2024-02-28T14:13:06;22.83;;;12.40;;
62584;SDS011;48643;51.670;5.808;2024-02-28T14:15:33;22.15;;;11.90;;
62584;SDS011;48643;51.670;5.808;2024-02-28T14:18:03;22.50;;;11.68;;
62584;SDS011;48643;51.670;5.808;2024-02-28T14:20:30;23.20;;;11.10;;
62584;SDS011;48643;51.670;5.808;2024-02-28T14:22:57;21.83;;;11.85;;
62584;SDS011;48643;51.670;5.808;2024-02-28T14:25:24;27.13;;;12.00;;
62584;SDS011;48643;51.670;5.808;2024-02-28T14:27:52;21.27;;;11.20;;
62584;SDS011;48643;51.670;5.808;2024-02-28T14:30:19;22.25;;;11.25;;
62584;SDS011;48643;51.670;5.808;2024-02-28T14:32:46;21.42;;;11.18;;
62584;SDS011;48643;51.670;5.808;2024-02-28T14:35:15;19.97;;;10.70;;